sensor_id;sensor_type;location;lat;lon;timestamp;P1;durP1;ratioP1;P2;durP2;ratioP2
70406;SDS011;57821;52.202;0.154;2023-02-14T00:02:18;91.05;;;38.83;;
70406;SDS011;57821;52.202;0.154;2023-02-14T00:04:44;88.55;;;39.85;;
70406;SDS011;57821;52.202;0.154;2023-02-14T00:07:11;82.68;;;38.63;;
70406;SDS011;57821;52.202;0.154;2023-02-14T00:09:37;81.63;;;38.00;;
70406;SDS011;57821;52.202;0.154;2023-02-14T00:12:04;80.68;;;37.08;;
70406;SDS011;57821;52.202;0.154;2023-02-14T00:14:31;83.72;;;38.90;;
70406;SDS011;57821;52.202;0.154;2023-02-14T00:16:58;81.32;;;36.65;;
70406;SDS011;57821;52.202;0.154;2023-02-14T00:19:25;74.25;;;34.72;;
70406;SDS011;57821;52.202;0.154;2023-02-14T00:21:51;77.22;;;36.58;;
70406;SDS011;57821;52.202;0.154;2023-02-14T00:24:22;76.72;;;34.63;;
70406;SDS011;57821;52.202;0.154;2023-02-14T00:26:50;75.97;;;35.95;;
70406;SDS011;57821;52.202;0.154;2023-02-14T00:29:19;71.57;;;34.08;;
70406;SDS011;57821;52.202;0.154;2023-02-14T00:31:56;66.47;;;32.08;;
70406;SDS011;57821;52.202;0.154;2023-02-14T00:34:23;66.93;;;32.75;;
70406;SDS011;57821;52.202;0.154;2023-02-14T00:36:50;70.63;;;33.22;;
70406;SDS011;57821;52.202;0.154;2023-02-14T00:39:17;67.93;;;33.95;;
70406;SDS011;57821;52.202;0.154;2023-02-14T00:41:44;67.32;;;32.80;;
70406;SDS011;57821;52.202;0.154;2023-02-14T00:44:11;67.43;;;33.13;;
70406;SDS011;57821;52.202;0.154;2023-02-14T00:46:39;65.20;;;32.55;;
70406;SDS011;57821;52.202;0.154;2023-02-14T00:49:05;68.85;;;34.35;;
70406;SDS011;57821;52.202;0.154;2023-02-14T00:51:32;73.07;;;34.95;;
70406;SDS011;57821;52.202;0.154;2023-02-14T00:54:00;69.20;;;33.88;;
70406;SDS011;57821;52.202;0.154;2023-02-14T00:56:29;69.53;;;34.30;;
70406;SDS011;57821;52.202;0.154;2023-02-14T00:58:56;66.80;;;32.40;;
70406;SDS011;57821;52.202;0.154;2023-02-14T01:01:22;72.43;;;35.20;;
70406;SDS011;57821;52.202;0.154;2023-02-14T01:03:49;69.57;;;34.67;;
70406;SDS011;57821;52.202;0.154;2023-02-14T01:06:17;67.22;;;33.55;;
70406;SDS011;57821;52.202;0.154;2023-02-14T01:08:44;67.25;;;33.72;;
70406;SDS011;57821;52.202;0.154;2023-02-14T01:11:11;70.13;;;33.75;;
70406;SDS011;57821;52.202;0.154;2023-02-14T01:13:48;72.65;;;33.63;;
70406;SDS011;57821;52.202;0.154;2023-02-14T01:16:18;63.15;;;33.38;;
70406;SDS011;57821;52.202;0.154;2023-02-14T01:18:47;74.38;;;33.25;;
70406;SDS011;57821;52.202;0.154;2023-02-14T01:24:10;73.25;;;33.20;;
70406;SDS011;57821;52.202;0.154;2023-02-14T01:26:40;70.78;;;32.97;;
70406;SDS011;57821;52.202;0.154;2023-02-14T01:29:07;69.30;;;33.50;;
70406;SDS011;57821;52.202;0.154;2023-02-14T01:31:34;65.88;;;32.30;;
70406;SDS011;57821;52.202;0.154;2023-02-14T01:34:01;62.70;;;31.70;;
70406;SDS011;57821;52.202;0.154;2023-02-14T01:36:29;66.05;;;32.13;;
70406;SDS011;57821;52.202;0.154;2023-02-14T01:39:04;69.25;;;32.78;;
70406;SDS011;57821;52.202;0.154;2023-02-14T01:41:34;69.95;;;30.95;;
70406;SDS011;57821;52.202;0.154;2023-02-14T01:44:04;64.10;;;30.75;;
70406;SDS011;57821;52.202;0.154;2023-02-14T01:46:33;67.78;;;31.85;;
70406;SDS011;57821;52.202;0.154;2023-02-14T01:49:04;65.18;;;30.52;;
70406;SDS011;57821;52.202;0.154;2023-02-14T01:54:44;56.85;;;29.30;;
70406;SDS011;57821;52.202;0.154;2023-02-14T01:57:15;62.70;;;29.15;;
70406;SDS011;57821;52.202;0.154;2023-02-14T01:59:46;60.03;;;29.98;;
70406;SDS011;57821;52.202;0.154;2023-02-14T02:02:18;63.85;;;28.98;;
70406;SDS011;57821;52.202;0.154;2023-02-14T02:04:44;62.65;;;30.90;;
70406;SDS011;57821;52.202;0.154;2023-02-14T02:07:13;61.92;;;29.55;;
70406;SDS011;57821;52.202;0.154;2023-02-14T02:09:54;60.90;;;28.33;;
70406;SDS011;57821;52.202;0.154;2023-02-14T02:12:25;58.42;;;29.95;;
70406;SDS011;57821;52.202;0.154;2023-02-14T02:14:56;63.38;;;29.15;;
70406;SDS011;57821;52.202;0.154;2023-02-14T02:17:27;59.45;;;30.85;;
70406;SDS011;57821;52.202;0.154;2023-02-14T02:48:08;60.05;;;29.73;;
70406;SDS011;57821;52.202;0.154;2023-02-14T02:50:44;60.50;;;29.55;;
70406;SDS011;57821;52.202;0.154;2023-02-14T02:55:58;56.28;;;27.08;;
70406;SDS011;57821;52.202;0.154;2023-02-14T02:58:32;61.88;;;29.27;;
70406;SDS011;57821;52.202;0.154;2023-02-14T03:01:03;57.95;;;27.60;;
70406;SDS011;57821;52.202;0.154;2023-02-14T03:03:35;54.92;;;26.67;;
70406;SDS011;57821;52.202;0.154;2023-02-14T03:06:04;56.40;;;29.08;;
70406;SDS011;57821;52.202;0.154;2023-02-14T03:08:31;60.38;;;29.23;;
70406;SDS011;57821;52.202;0.154;2023-02-14T03:10:58;65.70;;;30.80;;
70406;SDS011;57821;52.202;0.154;2023-02-14T03:13:29;60.80;;;28.52;;
70406;SDS011;57821;52.202;0.154;2023-02-14T03:16:15;58.90;;;27.92;;
70406;SDS011;57821;52.202;0.154;2023-02-14T03:27:21;63.17;;;28.50;;
70406;SDS011;57821;52.202;0.154;2023-02-14T03:29:54;60.40;;;28.73;;
70406;SDS011;57821;52.202;0.154;2023-02-14T03:40:35;54.22;;;27.05;;
70406;SDS011;57821;52.202;0.154;2023-02-14T03:43:13;55.95;;;28.52;;
70406;SDS011;57821;52.202;0.154;2023-02-14T03:48:29;59.65;;;27.98;;
70406;SDS011;57821;52.202;0.154;2023-02-14T03:50:58;64.82;;;32.05;;
70406;SDS011;57821;52.202;0.154;2023-02-14T03:53:27;67.53;;;31.17;;
70406;SDS011;57821;52.202;0.154;2023-02-14T03:56:02;69.00;;;32.15;;
70406;SDS011;57821;52.202;0.154;2023-02-14T03:58:38;65.40;;;32.28;;
70406;SDS011;57821;52.202;0.154;2023-02-14T04:01:13;68.70;;;31.98;;
70406;SDS011;57821;52.202;0.154;2023-02-14T04:03:46;64.43;;;30.88;;
70406;SDS011;57821;52.202;0.154;2023-02-14T04:06:16;69.60;;;33.58;;
70406;SDS011;57821;52.202;0.154;2023-02-14T04:08:43;90.75;;;38.75;;
70406;SDS011;57821;52.202;0.154;2023-02-14T04:11:10;97.38;;;38.65;;
70406;SDS011;57821;52.202;0.154;2023-02-14T04:13:37;89.32;;;39.10;;
70406;SDS011;57821;52.202;0.154;2023-02-14T04:16:04;91.78;;;40.80;;
70406;SDS011;57821;52.202;0.154;2023-02-14T04:18:31;93.85;;;39.55;;
70406;SDS011;57821;52.202;0.154;2023-02-14T04:20:58;94.10;;;39.17;;
70406;SDS011;57821;52.202;0.154;2023-02-14T04:23:25;89.25;;;38.97;;
70406;SDS011;57821;52.202;0.154;2023-02-14T04:25:52;86.63;;;37.90;;
70406;SDS011;57821;52.202;0.154;2023-02-14T04:28:18;86.40;;;39.30;;
70406;SDS011;57821;52.202;0.154;2023-02-14T04:30:45;103.80;;;42.45;;
70406;SDS011;57821;52.202;0.154;2023-02-14T04:33:12;90.47;;;40.50;;
70406;SDS011;57821;52.202;0.154;2023-02-14T04:35:38;88.65;;;40.90;;
70406;SDS011;57821;52.202;0.154;2023-02-14T04:38:05;93.38;;;39.75;;
70406;SDS011;57821;52.202;0.154;2023-02-14T04:40:31;89.68;;;39.80;;
70406;SDS011;57821;52.202;0.154;2023-02-14T04:42:58;91.93;;;40.72;;
70406;SDS011;57821;52.202;0.154;2023-02-14T04:45:24;93.50;;;39.63;;
70406;SDS011;57821;52.202;0.154;2023-02-14T04:47:51;105.03;;;43.15;;
70406;SDS011;57821;52.202;0.154;2023-02-14T04:50:17;104.35;;;42.92;;
70406;SDS011;57821;52.202;0.154;2023-02-14T04:52:44;109.13;;;44.38;;
70406;SDS011;57821;52.202;0.154;2023-02-14T04:55:10;100.45;;;42.25;;
70406;SDS011;57821;52.202;0.154;2023-02-14T04:57:37;90.53;;;41.63;;
70406;SDS011;57821;52.202;0.154;2023-02-14T05:00:04;100.20;;;42.63;;
70406;SDS011;57821;52.202;0.154;2023-02-14T05:02:31;110.45;;;45.05;;
70406;SDS011;57821;52.202;0.154;2023-02-14T05:04:57;91.80;;;41.03;;
70406;SDS011;57821;52.202;0.154;2023-02-14T05:07:24;115.53;;;45.63;;
70406;SDS011;57821;52.202;0.154;2023-02-14T05:09:50;117.82;;;44.92;;
70406;SDS011;57821;52.202;0.154;2023-02-14T05:12:17;93.95;;;41.08;;
70406;SDS011;57821;52.202;0.154;2023-02-14T05:14:43;99.65;;;40.03;;
70406;SDS011;57821;52.202;0.154;2023-02-14T05:17:10;97.30;;;41.63;;
70406;SDS011;57821;52.202;0.154;2023-02-14T05:19:36;85.85;;;37.58;;
70406;SDS011;57821;52.202;0.154;2023-02-14T05:22:03;73.40;;;37.40;;
70406;SDS011;57821;52.202;0.154;2023-02-14T05:24:29;84.90;;;38.63;;
70406;SDS011;57821;52.202;0.154;2023-02-14T05:26:56;83.20;;;39.20;;
70406;SDS011;57821;52.202;0.154;2023-02-14T05:29:22;86.15;;;38.30;;
70406;SDS011;57821;52.202;0.154;2023-02-14T05:31:49;68.25;;;34.58;;
70406;SDS011;57821;52.202;0.154;2023-02-14T05:34:16;74.10;;;35.25;;
70406;SDS011;57821;52.202;0.154;2023-02-14T05:36:42;76.35;;;36.13;;
70406;SDS011;57821;52.202;0.154;2023-02-14T05:39:09;69.50;;;33.75;;
70406;SDS011;57821;52.202;0.154;2023-02-14T05:41:35;71.93;;;33.50;;
70406;SDS011;57821;52.202;0.154;2023-02-14T05:44:02;76.55;;;34.95;;
70406;SDS011;57821;52.202;0.154;2023-02-14T05:46:28;65.70;;;32.63;;
70406;SDS011;57821;52.202;0.154;2023-02-14T05:48:54;61.15;;;31.15;;
70406;SDS011;57821;52.202;0.154;2023-02-14T05:51:21;62.60;;;30.33;;
70406;SDS011;57821;52.202;0.154;2023-02-14T05:53:48;65.35;;;32.92;;
70406;SDS011;57821;52.202;0.154;2023-02-14T05:56:14;72.38;;;34.70;;
70406;SDS011;57821;52.202;0.154;2023-02-14T05:58:41;68.55;;;32.55;;
70406;SDS011;57821;52.202;0.154;2023-02-14T06:01:07;67.10;;;32.53;;
70406;SDS011;57821;52.202;0.154;2023-02-14T06:03:34;72.13;;;33.83;;
70406;SDS011;57821;52.202;0.154;2023-02-14T06:06:00;59.22;;;31.55;;
70406;SDS011;57821;52.202;0.154;2023-02-14T06:08:27;68.22;;;32.85;;
70406;SDS011;57821;52.202;0.154;2023-02-14T06:10:53;66.25;;;33.00;;
70406;SDS011;57821;52.202;0.154;2023-02-14T06:13:20;66.47;;;33.28;;
70406;SDS011;57821;52.202;0.154;2023-02-14T06:15:46;66.80;;;32.85;;
70406;SDS011;57821;52.202;0.154;2023-02-14T06:18:13;62.97;;;30.67;;
70406;SDS011;57821;52.202;0.154;2023-02-14T06:20:39;67.93;;;33.15;;
70406;SDS011;57821;52.202;0.154;2023-02-14T06:23:05;66.55;;;32.38;;
70406;SDS011;57821;52.202;0.154;2023-02-14T06:25:32;66.35;;;32.22;;
70406;SDS011;57821;52.202;0.154;2023-02-14T06:27:58;71.13;;;34.35;;
70406;SDS011;57821;52.202;0.154;2023-02-14T06:30:25;74.50;;;36.47;;
70406;SDS011;57821;52.202;0.154;2023-02-14T06:32:53;76.32;;;34.72;;
70406;SDS011;57821;52.202;0.154;2023-02-14T06:35:19;74.70;;;35.50;;
70406;SDS011;57821;52.202;0.154;2023-02-14T06:37:46;74.38;;;34.25;;
70406;SDS011;57821;52.202;0.154;2023-02-14T06:40:12;98.25;;;41.78;;
70406;SDS011;57821;52.202;0.154;2023-02-14T06:42:39;123.65;;;46.20;;
70406;SDS011;57821;52.202;0.154;2023-02-14T06:45:06;114.18;;;46.30;;
70406;SDS011;57821;52.202;0.154;2023-02-14T06:47:33;123.82;;;44.80;;
70406;SDS011;57821;52.202;0.154;2023-02-14T06:50:00;100.63;;;43.13;;
70406;SDS011;57821;52.202;0.154;2023-02-14T06:52:27;115.80;;;46.88;;
70406;SDS011;57821;52.202;0.154;2023-02-14T06:54:54;111.07;;;44.67;;
70406;SDS011;57821;52.202;0.154;2023-02-14T06:57:20;101.90;;;44.65;;
70406;SDS011;57821;52.202;0.154;2023-02-14T06:59:47;88.75;;;42.28;;
70406;SDS011;57821;52.202;0.154;2023-02-14T07:02:13;103.47;;;43.72;;
70406;SDS011;57821;52.202;0.154;2023-02-14T07:04:40;100.82;;;43.30;;
70406;SDS011;57821;52.202;0.154;2023-02-14T07:07:06;95.88;;;40.60;;
70406;SDS011;57821;52.202;0.154;2023-02-14T07:09:33;94.30;;;40.55;;
70406;SDS011;57821;52.202;0.154;2023-02-14T07:11:59;101.47;;;42.55;;
70406;SDS011;57821;52.202;0.154;2023-02-14T07:14:26;85.30;;;39.72;;
70406;SDS011;57821;52.202;0.154;2023-02-14T07:16:52;92.30;;;39.15;;
70406;SDS011;57821;52.202;0.154;2023-02-14T07:19:19;92.47;;;39.63;;
70406;SDS011;57821;52.202;0.154;2023-02-14T07:21:45;89.97;;;38.78;;
70406;SDS011;57821;52.202;0.154;2023-02-14T07:24:12;97.45;;;41.97;;
70406;SDS011;57821;52.202;0.154;2023-02-14T07:26:38;102.90;;;44.42;;
70406;SDS011;57821;52.202;0.154;2023-02-14T07:29:05;110.05;;;42.90;;
70406;SDS011;57821;52.202;0.154;2023-02-14T07:31:31;110.40;;;44.53;;
70406;SDS011;57821;52.202;0.154;2023-02-14T07:33:58;124.43;;;47.90;;
70406;SDS011;57821;52.202;0.154;2023-02-14T07:36:25;107.45;;;45.28;;
70406;SDS011;57821;52.202;0.154;2023-02-14T07:38:51;101.97;;;44.15;;
70406;SDS011;57821;52.202;0.154;2023-02-14T07:41:18;97.18;;;42.85;;
70406;SDS011;57821;52.202;0.154;2023-02-14T07:43:44;100.57;;;43.30;;
70406;SDS011;57821;52.202;0.154;2023-02-14T07:46:11;103.35;;;44.50;;
70406;SDS011;57821;52.202;0.154;2023-02-14T07:48:37;94.07;;;40.70;;
70406;SDS011;57821;52.202;0.154;2023-02-14T07:51:04;89.32;;;40.38;;
70406;SDS011;57821;52.202;0.154;2023-02-14T07:53:30;76.80;;;38.63;;
70406;SDS011;57821;52.202;0.154;2023-02-14T07:55:57;85.82;;;39.35;;
70406;SDS011;57821;52.202;0.154;2023-02-14T07:58:23;82.85;;;39.60;;
70406;SDS011;57821;52.202;0.154;2023-02-14T08:00:50;86.63;;;40.63;;
70406;SDS011;57821;52.202;0.154;2023-02-14T08:03:16;90.28;;;39.38;;
70406;SDS011;57821;52.202;0.154;2023-02-14T08:05:43;85.78;;;38.42;;
70406;SDS011;57821;52.202;0.154;2023-02-14T08:08:10;82.88;;;39.30;;
70406;SDS011;57821;52.202;0.154;2023-02-14T08:10:36;88.40;;;40.78;;
70406;SDS011;57821;52.202;0.154;2023-02-14T08:13:03;86.68;;;41.63;;
70406;SDS011;57821;52.202;0.154;2023-02-14T08:15:33;82.88;;;41.20;;
70406;SDS011;57821;52.202;0.154;2023-02-14T08:18:00;99.20;;;41.50;;
70406;SDS011;57821;52.202;0.154;2023-02-14T08:20:27;83.10;;;39.58;;
70406;SDS011;57821;52.202;0.154;2023-02-14T08:22:53;79.70;;;38.72;;
70406;SDS011;57821;52.202;0.154;2023-02-14T08:25:20;82.72;;;39.40;;
70406;SDS011;57821;52.202;0.154;2023-02-14T08:27:46;75.88;;;38.00;;
70406;SDS011;57821;52.202;0.154;2023-02-14T08:30:13;75.00;;;38.08;;
70406;SDS011;57821;52.202;0.154;2023-02-14T08:32:40;78.78;;;36.92;;
70406;SDS011;57821;52.202;0.154;2023-02-14T08:35:08;85.63;;;41.15;;
70406;SDS011;57821;52.202;0.154;2023-02-14T08:37:35;79.00;;;38.03;;
70406;SDS011;57821;52.202;0.154;2023-02-14T08:40:01;82.68;;;39.30;;
70406;SDS011;57821;52.202;0.154;2023-02-14T08:42:28;81.85;;;37.85;;
70406;SDS011;57821;52.202;0.154;2023-02-14T08:44:54;82.38;;;41.08;;
70406;SDS011;57821;52.202;0.154;2023-02-14T08:47:21;85.90;;;41.60;;
70406;SDS011;57821;52.202;0.154;2023-02-14T08:49:47;78.97;;;39.70;;
70406;SDS011;57821;52.202;0.154;2023-02-14T08:52:14;80.50;;;41.03;;
70406;SDS011;57821;52.202;0.154;2023-02-14T08:54:41;80.60;;;40.85;;
70406;SDS011;57821;52.202;0.154;2023-02-14T08:57:08;81.28;;;40.85;;
70406;SDS011;57821;52.202;0.154;2023-02-14T08:59:34;87.55;;;41.75;;
70406;SDS011;57821;52.202;0.154;2023-02-14T09:02:01;80.20;;;42.08;;
70406;SDS011;57821;52.202;0.154;2023-02-14T09:04:27;70.70;;;39.60;;
70406;SDS011;57821;52.202;0.154;2023-02-14T09:06:54;74.47;;;40.13;;
70406;SDS011;57821;52.202;0.154;2023-02-14T09:09:20;65.30;;;36.80;;
70406;SDS011;57821;52.202;0.154;2023-02-14T09:11:47;70.35;;;39.22;;
70406;SDS011;57821;52.202;0.154;2023-02-14T09:14:13;60.85;;;35.55;;
70406;SDS011;57821;52.202;0.154;2023-02-14T09:16:40;60.20;;;33.50;;
70406;SDS011;57821;52.202;0.154;2023-02-14T09:19:06;53.00;;;32.95;;
70406;SDS011;57821;52.202;0.154;2023-02-14T09:21:33;53.78;;;33.70;;
70406;SDS011;57821;52.202;0.154;2023-02-14T09:23:59;57.58;;;32.92;;
70406;SDS011;57821;52.202;0.154;2023-02-14T09:26:26;50.33;;;31.35;;
70406;SDS011;57821;52.202;0.154;2023-02-14T09:28:52;51.10;;;31.65;;
70406;SDS011;57821;52.202;0.154;2023-02-14T09:31:20;51.10;;;31.55;;
70406;SDS011;57821;52.202;0.154;2023-02-14T09:33:48;50.72;;;32.55;;
70406;SDS011;57821;52.202;0.154;2023-02-14T09:36:16;47.33;;;30.83;;
70406;SDS011;57821;52.202;0.154;2023-02-14T09:38:42;46.65;;;30.00;;
70406;SDS011;57821;52.202;0.154;2023-02-14T09:41:11;48.58;;;28.88;;
70406;SDS011;57821;52.202;0.154;2023-02-14T09:44:03;45.55;;;29.48;;
70406;SDS011;57821;52.202;0.154;2023-02-14T09:46:35;47.58;;;30.23;;
70406;SDS011;57821;52.202;0.154;2023-02-14T09:49:10;42.13;;;28.52;;
70406;SDS011;57821;52.202;0.154;2023-02-14T09:51:43;41.83;;;28.13;;
70406;SDS011;57821;52.202;0.154;2023-02-14T09:54:21;42.42;;;28.73;;
70406;SDS011;57821;52.202;0.154;2023-02-14T09:59:47;41.10;;;27.73;;
70406;SDS011;57821;52.202;0.154;2023-02-14T10:07:36;40.80;;;28.15;;
70406;SDS011;57821;52.202;0.154;2023-02-14T10:16:22;37.10;;;26.38;;
70406;SDS011;57821;52.202;0.154;2023-02-14T10:18:58;37.72;;;27.05;;
70406;SDS011;57821;52.202;0.154;2023-02-14T10:21:30;42.30;;;26.35;;
70406;SDS011;57821;52.202;0.154;2023-02-14T10:24:13;35.97;;;26.63;;
70406;SDS011;57821;52.202;0.154;2023-02-14T10:26:41;36.58;;;26.85;;
70406;SDS011;57821;52.202;0.154;2023-02-14T10:29:11;37.75;;;26.77;;
70406;SDS011;57821;52.202;0.154;2023-02-14T10:31:44;37.20;;;26.88;;
70406;SDS011;57821;52.202;0.154;2023-02-14T10:34:36;38.15;;;27.38;;
70406;SDS011;57821;52.202;0.154;2023-02-14T10:50:42;37.22;;;26.73;;
70406;SDS011;57821;52.202;0.154;2023-02-14T10:58:11;40.38;;;26.88;;
70406;SDS011;57821;52.202;0.154;2023-02-14T11:03:29;37.38;;;25.63;;
70406;SDS011;57821;52.202;0.154;2023-02-14T11:05:58;35.53;;;25.15;;
70406;SDS011;57821;52.202;0.154;2023-02-14T11:08:59;38.20;;;25.73;;
70406;SDS011;57821;52.202;0.154;2023-02-14T11:11:20;36.25;;;25.60;;
70406;SDS011;57821;52.202;0.154;2023-02-14T11:13:52;35.50;;;24.85;;
70406;SDS011;57821;52.202;0.154;2023-02-14T11:16:29;36.60;;;25.27;;
70406;SDS011;57821;52.202;0.154;2023-02-14T11:21:43;37.67;;;25.63;;
70406;SDS011;57821;52.202;0.154;2023-02-14T11:26:59;34.25;;;24.35;;
70406;SDS011;57821;52.202;0.154;2023-02-14T11:34:40;37.03;;;24.95;;
70406;SDS011;57821;52.202;0.154;2023-02-14T11:39:55;38.47;;;24.38;;
70406;SDS011;57821;52.202;0.154;2023-02-14T11:42:44;40.07;;;26.30;;
70406;SDS011;57821;52.202;0.154;2023-02-14T11:50:54;39.92;;;25.38;;
70406;SDS011;57821;52.202;0.154;2023-02-14T11:53:26;37.92;;;25.05;;
70406;SDS011;57821;52.202;0.154;2023-02-14T11:55:55;38.83;;;24.45;;
70406;SDS011;57821;52.202;0.154;2023-02-14T11:58:31;35.30;;;24.30;;
70406;SDS011;57821;52.202;0.154;2023-02-14T12:01:01;36.70;;;23.67;;
70406;SDS011;57821;52.202;0.154;2023-02-14T12:03:31;36.22;;;23.98;;
70406;SDS011;57821;52.202;0.154;2023-02-14T12:06:04;35.88;;;24.05;;
70406;SDS011;57821;52.202;0.154;2023-02-14T12:08:31;41.08;;;24.88;;
70406;SDS011;57821;52.202;0.154;2023-02-14T12:11:02;37.95;;;23.92;;
70406;SDS011;57821;52.202;0.154;2023-02-14T12:13:29;34.80;;;23.30;;
70406;SDS011;57821;52.202;0.154;2023-02-14T12:15:57;34.95;;;22.77;;
70406;SDS011;57821;52.202;0.154;2023-02-14T12:20:59;34.50;;;23.13;;
70406;SDS011;57821;52.202;0.154;2023-02-14T12:29:13;36.92;;;22.08;;
70406;SDS011;57821;52.202;0.154;2023-02-14T12:31:45;38.95;;;22.58;;
70406;SDS011;57821;52.202;0.154;2023-02-14T12:34:12;33.40;;;22.67;;
70406;SDS011;57821;52.202;0.154;2023-02-14T12:36:51;35.15;;;22.38;;
70406;SDS011;57821;52.202;0.154;2023-02-14T12:42:46;38.60;;;23.67;;
70406;SDS011;57821;52.202;0.154;2023-02-14T12:45:19;36.83;;;23.83;;
70406;SDS011;57821;52.202;0.154;2023-02-14T12:48:00;36.47;;;22.67;;
70406;SDS011;57821;52.202;0.154;2023-02-14T12:50:46;35.33;;;22.52;;
70406;SDS011;57821;52.202;0.154;2023-02-14T12:53:38;35.20;;;23.27;;
70406;SDS011;57821;52.202;0.154;2023-02-14T12:56:53;35.15;;;24.15;;
70406;SDS011;57821;52.202;0.154;2023-02-14T13:04:43;37.80;;;22.88;;
70406;SDS011;57821;52.202;0.154;2023-02-14T13:07:25;37.42;;;22.63;;
70406;SDS011;57821;52.202;0.154;2023-02-14T13:15:42;35.22;;;21.95;;
70406;SDS011;57821;52.202;0.154;2023-02-14T13:21:21;31.33;;;21.98;;
70406;SDS011;57821;52.202;0.154;2023-02-14T13:23:53;32.17;;;20.08;;
70406;SDS011;57821;52.202;0.154;2023-02-14T13:26:26;32.38;;;19.33;;
70406;SDS011;57821;52.202;0.154;2023-02-14T13:29:01;28.67;;;15.68;;
70406;SDS011;57821;52.202;0.154;2023-02-14T13:31:35;27.38;;;15.43;;
70406;SDS011;57821;52.202;0.154;2023-02-14T13:34:26;24.67;;;15.43;;
70406;SDS011;57821;52.202;0.154;2023-02-14T13:36:54;27.42;;;15.65;;
70406;SDS011;57821;52.202;0.154;2023-02-14T13:39:28;25.60;;;16.48;;
70406;SDS011;57821;52.202;0.154;2023-02-14T13:42:04;25.92;;;16.77;;
70406;SDS011;57821;52.202;0.154;2023-02-14T13:47:04;29.13;;;17.00;;
70406;SDS011;57821;52.202;0.154;2023-02-14T13:49:33;29.50;;;17.55;;
70406;SDS011;57821;52.202;0.154;2023-02-14T13:52:05;31.73;;;17.10;;
70406;SDS011;57821;52.202;0.154;2023-02-14T14:00:20;32.05;;;19.27;;
70406;SDS011;57821;52.202;0.154;2023-02-14T14:02:48;30.00;;;17.45;;
70406;SDS011;57821;52.202;0.154;2023-02-14T14:08:15;33.55;;;19.42;;
70406;SDS011;57821;52.202;0.154;2023-02-14T14:10:50;29.25;;;16.92;;
70406;SDS011;57821;52.202;0.154;2023-02-14T14:18:50;30.05;;;18.20;;
70406;SDS011;57821;52.202;0.154;2023-02-14T14:21:23;28.13;;;18.25;;
70406;SDS011;57821;52.202;0.154;2023-02-14T14:26:59;31.42;;;19.63;;
70406;SDS011;57821;52.202;0.154;2023-02-14T14:29:39;31.75;;;18.90;;
70406;SDS011;57821;52.202;0.154;2023-02-14T14:34:46;28.05;;;15.60;;
70406;SDS011;57821;52.202;0.154;2023-02-14T14:37:15;26.02;;;16.02;;
70406;SDS011;57821;52.202;0.154;2023-02-14T14:39:48;28.08;;;15.52;;
70406;SDS011;57821;52.202;0.154;2023-02-14T14:42:37;28.90;;;16.63;;
70406;SDS011;57821;52.202;0.154;2023-02-14T14:45:06;27.67;;;16.42;;
70406;SDS011;57821;52.202;0.154;2023-02-14T14:47:44;25.40;;;15.68;;
70406;SDS011;57821;52.202;0.154;2023-02-14T14:50:16;22.85;;;15.35;;
70406;SDS011;57821;52.202;0.154;2023-02-14T14:52:47;26.25;;;16.13;;
70406;SDS011;57821;52.202;0.154;2023-02-14T14:55:21;27.05;;;16.33;;
70406;SDS011;57821;52.202;0.154;2023-02-14T14:57:50;23.25;;;15.23;;
70406;SDS011;57821;52.202;0.154;2023-02-14T15:05:33;27.67;;;15.63;;
70406;SDS011;57821;52.202;0.154;2023-02-14T15:10:54;24.60;;;14.80;;
70406;SDS011;57821;52.202;0.154;2023-02-14T15:13:34;27.15;;;15.02;;
70406;SDS011;57821;52.202;0.154;2023-02-14T15:16:02;27.70;;;15.80;;
70406;SDS011;57821;52.202;0.154;2023-02-14T15:18:29;26.15;;;15.52;;
70406;SDS011;57821;52.202;0.154;2023-02-14T15:20:55;24.80;;;15.25;;
70406;SDS011;57821;52.202;0.154;2023-02-14T15:23:23;26.08;;;15.90;;
70406;SDS011;57821;52.202;0.154;2023-02-14T15:25:50;28.38;;;16.60;;
70406;SDS011;57821;52.202;0.154;2023-02-14T15:28:30;24.85;;;15.25;;
70406;SDS011;57821;52.202;0.154;2023-02-14T15:31:00;28.52;;;16.52;;
70406;SDS011;57821;52.202;0.154;2023-02-14T15:33:29;22.43;;;15.70;;
70406;SDS011;57821;52.202;0.154;2023-02-14T15:35:58;27.40;;;17.75;;
70406;SDS011;57821;52.202;0.154;2023-02-14T15:38:29;29.80;;;18.45;;
70406;SDS011;57821;52.202;0.154;2023-02-14T15:40:57;26.85;;;19.10;;
70406;SDS011;57821;52.202;0.154;2023-02-14T15:43:33;32.88;;;19.38;;
70406;SDS011;57821;52.202;0.154;2023-02-14T15:46:15;30.67;;;16.92;;
70406;SDS011;57821;52.202;0.154;2023-02-14T15:48:45;28.25;;;17.35;;
70406;SDS011;57821;52.202;0.154;2023-02-14T15:51:18;29.88;;;17.23;;
70406;SDS011;57821;52.202;0.154;2023-02-14T15:56:21;32.08;;;16.80;;
70406;SDS011;57821;52.202;0.154;2023-02-14T15:58:54;32.60;;;16.88;;
70406;SDS011;57821;52.202;0.154;2023-02-14T16:01:24;29.83;;;17.27;;
70406;SDS011;57821;52.202;0.154;2023-02-14T16:03:53;31.50;;;17.70;;
70406;SDS011;57821;52.202;0.154;2023-02-14T16:06:29;33.92;;;17.52;;
70406;SDS011;57821;52.202;0.154;2023-02-14T16:08:58;26.45;;;17.08;;
70406;SDS011;57821;52.202;0.154;2023-02-14T16:11:34;30.45;;;17.67;;
70406;SDS011;57821;52.202;0.154;2023-02-14T16:14:18;26.98;;;17.08;;
70406;SDS011;57821;52.202;0.154;2023-02-14T16:16:59;30.15;;;17.65;;
70406;SDS011;57821;52.202;0.154;2023-02-14T16:19:39;27.40;;;17.90;;
70406;SDS011;57821;52.202;0.154;2023-02-14T16:22:08;32.05;;;18.95;;
70406;SDS011;57821;52.202;0.154;2023-02-14T16:24:49;37.40;;;20.65;;
70406;SDS011;57821;52.202;0.154;2023-02-14T16:27:15;32.28;;;19.77;;
70406;SDS011;57821;52.202;0.154;2023-02-14T16:29:42;32.88;;;19.42;;
70406;SDS011;57821;52.202;0.154;2023-02-14T16:32:26;29.98;;;18.75;;
70406;SDS011;57821;52.202;0.154;2023-02-14T16:34:53;29.75;;;18.50;;
70406;SDS011;57821;52.202;0.154;2023-02-14T16:37:24;40.30;;;20.38;;
70406;SDS011;57821;52.202;0.154;2023-02-14T16:39:55;37.55;;;19.67;;
70406;SDS011;57821;52.202;0.154;2023-02-14T16:42:22;29.88;;;18.60;;
70406;SDS011;57821;52.202;0.154;2023-02-14T16:44:49;29.42;;;19.38;;
70406;SDS011;57821;52.202;0.154;2023-02-14T16:47:17;31.67;;;20.27;;
70406;SDS011;57821;52.202;0.154;2023-02-14T16:49:45;35.00;;;19.50;;
70406;SDS011;57821;52.202;0.154;2023-02-14T16:52:12;31.30;;;19.58;;
70406;SDS011;57821;52.202;0.154;2023-02-14T16:54:42;32.65;;;19.42;;
70406;SDS011;57821;52.202;0.154;2023-02-14T16:57:24;31.20;;;19.55;;
70406;SDS011;57821;52.202;0.154;2023-02-14T16:59:54;36.42;;;20.23;;
70406;SDS011;57821;52.202;0.154;2023-02-14T17:02:22;37.28;;;21.42;;
70406;SDS011;57821;52.202;0.154;2023-02-14T17:04:49;38.35;;;22.02;;
70406;SDS011;57821;52.202;0.154;2023-02-14T17:07:15;40.67;;;22.45;;
70406;SDS011;57821;52.202;0.154;2023-02-14T17:09:44;34.67;;;21.38;;
70406;SDS011;57821;52.202;0.154;2023-02-14T17:12:16;41.63;;;23.52;;
70406;SDS011;57821;52.202;0.154;2023-02-14T17:14:47;37.20;;;22.47;;
70406;SDS011;57821;52.202;0.154;2023-02-14T17:17:16;39.67;;;23.37;;
70406;SDS011;57821;52.202;0.154;2023-02-14T17:19:43;40.10;;;23.15;;
70406;SDS011;57821;52.202;0.154;2023-02-14T17:22:10;43.90;;;22.80;;
70406;SDS011;57821;52.202;0.154;2023-02-14T17:24:39;43.58;;;23.98;;
70406;SDS011;57821;52.202;0.154;2023-02-14T17:27:06;40.78;;;23.75;;